Time;durP1;ratioP1;P1;durP2;ratioP2;P2;SDS_P1;SDS_P2;PMS_P1;PMS_P2;Temp;Humidity;BMP_temperature;BMP_pressure;BME280_temperature;BME280_humidity;BME280_pressure;Samples;Min_cycle;Max_cycle;Signal;HPM_P1;HPM_P2
2023/08/02 00:00:57;;;;;;;;;;;18.20;99.90;;;;;;5033397;28;20338;-73
2023/08/02 00:03:25;;;;;;;;;;;18.10;99.90;;;;;;5024565;28;19965;-73
2023/08/02 00:05:54;;;;;;;;;;;18.10;99.90;;;;;;5032696;28;19964;-72
2023/08/02 00:08:22;;;;;;;;;;;18.00;99.90;;;;;;5032243;28;20354;-72
2023/08/02 00:10:50;;;;;;;;;;;17.90;99.90;;;;;;5032050;28;19963;-71
2023/08/02 00:13:17;;;;;;;;;;;17.90;99.90;;;;;;5030108;28;19983;-72
2023/08/02 00:15:47;;;;;;;;;;;17.90;99.90;;;;;;5029252;28;19979;-72
2023/08/02 00:18:14;;;;;;;;;;;17.90;99.90;;;;;;5028222;28;20370;-72
2023/08/02 00:20:44;;;;;;;;;;;17.90;99.90;;;;;;5026677;28;20082;-72
2023/08/02 00:23:12;;;;;;;;;;;17.90;99.90;;;;;;5029113;28;19964;-72
2023/08/02 00:25:40;;;;;;;;;;;18.00;99.90;;;;;;5028652;28;20187;-72
2023/08/02 00:28:07;;;;;;;;;;;18.00;99.90;;;;;;5028335;28;19964;-70
2023/08/02 00:30:43;;;;;;;;;;;18.00;99.90;;;;;;5027411;28;19964;-70
2023/08/02 00:33:13;;;;;;;;;;;18.00;99.90;;;;;;5023360;28;20052;-70
2023/08/02 00:35:44;;;;;;;;;;;17.80;99.90;;;;;;5028073;28;19970;-71
2023/08/02 00:38:12;;;;;;;;;;;17.60;99.90;;;;;;5021432;28;19967;-70
2023/08/02 00:40:40;;;;;;;;;;;17.50;99.90;;;;;;5028208;28;20566;-71
2023/08/02 00:43:08;;;;;;;;;;;17.50;99.90;;;;;;5025756;28;19961;-70
2023/08/02 00:45:37;;;;;;;;;;;17.30;99.90;;;;;;5026834;28;20443;-70
2023/08/02 00:48:05;;;;;;;;;;;17.30;99.90;;;;;;5025848;28;19972;-70
2023/08/02 00:50:35;;;;;;;;;;;17.40;99.90;;;;;;5027757;28;20530;-71
2023/08/02 00:53:03;;;;;;;;;;;17.40;99.90;;;;;;5024354;28;20022;-70
2023/08/02 00:55:31;;;;;;;;;;;17.30;99.90;;;;;;5029585;28;20315;-70
2023/08/02 00:57:58;;;;;;;;;;;17.30;99.90;;;;;;5022333;28;19959;-70
2023/08/02 01:00:27;;;;;;;;;;;17.20;99.90;;;;;;5030091;28;19982;-71
2023/08/02 01:02:55;;;;;;;;;;;17.30;99.90;;;;;;5027569;28;20466;-71
2023/08/02 01:05:28;;;;;;;;;;;17.30;99.90;;;;;;5026313;28;20481;-71
2023/08/02 01:07:59;;;;;;;;;;;17.40;99.90;;;;;;5026736;28;19995;-71
2023/08/02 01:10:30;;;;;;;;;;;17.40;99.90;;;;;;5027286;28;19967;-71
2023/08/02 01:13:00;;;;;;;;;;;17.50;99.90;;;;;;5022749;28;20598;-72
2023/08/02 01:15:28;;;;;;;;;;;17.60;99.90;;;;;;5028584;28;19964;-71
2023/08/02 01:17:56;;;;;;;;;;;17.70;99.90;;;;;;5026728;28;19971;-72
2023/08/02 01:20:25;;;;;;;;;;;17.80;99.90;;;;;;5026756;28;20335;-71
2023/08/02 01:22:53;;;;;;;;;;;17.90;99.90;;;;;;5025483;28;20052;-70
2023/08/02 01:25:21;;;;;;;;;;;18.00;99.90;;;;;;5025914;28;19960;-70
2023/08/02 01:27:52;;;;;;;;;;;18.10;99.90;;;;;;5026545;28;19968;-70
2023/08/02 01:30:21;;;;;;;;;;;18.20;99.90;;;;;;5029976;28;19959;-70
2023/08/02 01:32:49;;;;;;;;;;;18.10;99.90;;;;;;5025929;28;20423;-70
2023/08/02 01:35:17;;;;;;;;;;;18.20;99.90;;;;;;5025965;28;20067;-70
2023/08/02 01:37:46;;;;;;;;;;;18.20;99.90;;;;;;5025325;28;19967;-70
2023/08/02 01:40:14;;;;;;;;;;;18.20;99.90;;;;;;5027527;28;19967;-70
2023/08/02 01:42:42;;;;;;;;;;;18.10;99.90;;;;;;5027203;28;19960;-71
2023/08/02 01:45:11;;;;;;;;;;;18.20;99.90;;;;;;5028202;28;19960;-72
2023/08/02 01:47:39;;;;;;;;;;;18.10;99.90;;;;;;5026879;28;19966;-71
2023/08/02 01:50:07;;;;;;;;;;;18.10;99.90;;;;;;5027746;28;19964;-71
2023/08/02 01:52:35;;;;;;;;;;;18.10;99.90;;;;;;5026968;28;20050;-71
2023/08/02 01:55:05;;;;;;;;;;;18.10;99.90;;;;;;5028374;28;20427;-70
2023/08/02 01:57:32;;;;;;;;;;;18.00;99.90;;;;;;5027980;28;19968;-71
2023/08/02 02:00:00;;;;;;;;;;;18.10;99.90;;;;;;5026927;28;19968;-71
2023/08/02 02:02:28;;;;;;;;;;;18.00;99.90;;;;;;5027619;28;20446;-71
2023/08/02 02:04:56;;;;;;;;;;;18.10;99.90;;;;;;5026557;28;19964;-71
2023/08/02 02:07:23;;;;;;;;;;;18.10;99.90;;;;;;5016731;28;19967;-71
2023/08/02 02:09:51;;;;;;;;;;;18.20;99.90;;;;;;5021157;28;19972;-71
2023/08/02 02:12:20;;;;;;;;;;;18.20;99.90;;;;;;5021953;28;20362;-71
2023/08/02 02:14:48;;;;;;;;;;;18.10;99.90;;;;;;5022238;28;19964;-70
2023/08/02 02:17:16;;;;;;;;;;;18.00;99.90;;;;;;5025277;28;19964;-71
2023/08/02 02:19:44;;;;;;;;;;;17.90;99.90;;;;;;5028932;28;19968;-71
2023/08/02 02:22:12;;;;;;;;;;;17.90;99.90;;;;;;5030415;28;20178;-70
2023/08/02 02:24:40;;;;;;;;;;;18.00;99.90;;;;;;5029855;28;20026;-70
2023/08/02 02:27:08;;;;;;;;;;;18.00;99.90;;;;;;5028151;28;20358;-70
2023/08/02 02:29:37;;;;;;;;;;;18.00;99.90;;;;;;5031776;28;19964;-71
2023/08/02 02:32:05;;;;;;;;;;;18.00;99.90;;;;;;5025529;28;19987;-72
2023/08/02 02:34:33;;;;;;;;;;;18.00;99.90;;;;;;5015786;28;19961;-73
2023/08/02 02:37:01;;;;;;;;;;;17.90;99.90;;;;;;5139057;22;19972;-68
2023/08/02 02:39:29;;;;;;;;;;;18.00;99.90;;;;;;5014412;28;19964;-66
2023/08/02 02:41:57;;;;;;;;;;;18.00;99.90;;;;;;5011114;28;19968;-65
2023/08/02 02:44:25;;;;;;;;;;;18.00;99.90;;;;;;5006777;28;20040;-66
2023/08/02 02:46:55;;;;;;;;;;;18.00;99.90;;;;;;5010404;28;19964;-67
2023/08/02 02:49:22;;;;;;;;;;;17.90;99.90;;;;;;5011661;28;20348;-66
2023/08/02 02:51:50;;;;;;;;;;;18.00;99.90;;;;;;5009882;28;19973;-67
2023/08/02 02:54:18;;;;;;;;;;;18.00;99.90;;;;;;5011942;28;20100;-67
2023/08/02 02:56:46;;;;;;;;;;;17.90;99.90;;;;;;5010221;28;19964;-68
2023/08/02 02:59:13;;;;;;;;;;;17.80;99.90;;;;;;5010557;28;19964;-65
2023/08/02 03:01:41;;;;;;;;;;;17.90;99.90;;;;;;5007201;28;19965;-65
2023/08/02 03:04:10;;;;;;;;;;;17.90;99.90;;;;;;5007808;28;19968;-70
2023/08/02 03:06:38;;;;;;;;;;;18.00;99.90;;;;;;5009812;28;20026;-70
2023/08/02 03:09:06;;;;;;;;;;;18.00;99.90;;;;;;5006806;28;19961;-69
2023/08/02 03:11:34;;;;;;;;;;;18.00;99.90;;;;;;5010513;28;20383;-67
2023/08/02 03:14:03;;;;;;;;;;;17.90;99.90;;;;;;5007491;28;20027;-67
2023/08/02 03:16:30;;;;;;;;;;;17.90;99.90;;;;;;5001697;28;20030;-65
2023/08/02 03:18:58;;;;;;;;;;;17.90;99.90;;;;;;5009179;28;19966;-64
2023/08/02 03:21:27;;;;;;;;;;;17.80;99.90;;;;;;5014001;28;19961;-65
2023/08/02 03:23:55;;;;;;;;;;;17.70;99.90;;;;;;5004498;28;19969;-67
2023/08/02 03:26:23;;;;;;;;;;;17.80;99.90;;;;;;5018711;28;20275;-66
2023/08/02 03:28:50;;;;;;;;;;;17.70;99.90;;;;;;5005508;28;19969;-66
2023/08/02 03:31:18;;;;;;;;;;;17.60;99.90;;;;;;5010855;28;19961;-66
2023/08/02 03:33:46;;;;;;;;;;;17.50;99.90;;;;;;5010975;28;20003;-66
2023/08/02 03:36:14;;;;;;;;;;;17.40;99.90;;;;;;5008586;28;19972;-66
2023/08/02 03:38:43;;;;;;;;;;;17.50;99.90;;;;;;5009549;28;20370;-65
2023/08/02 03:41:11;;;;;;;;;;;17.40;99.90;;;;;;5015818;28;19964;-66
2023/08/02 03:43:38;;;;;;;;;;;17.40;99.90;;;;;;5009474;28;19960;-70
2023/08/02 03:46:06;;;;;;;;;;;17.40;99.90;;;;;;5016235;28;19967;-69
2023/08/02 03:48:34;;;;;;;;;;;17.40;99.90;;;;;;5011003;28;19967;-66
2023/08/02 03:51:02;;;;;;;;;;;17.30;99.90;;;;;;5022721;28;19973;-68
2023/08/02 03:53:30;;;;;;;;;;;17.40;99.90;;;;;;5012117;28;19963;-66
2023/08/02 03:55:59;;;;;;;;;;;17.40;99.90;;;;;;5014819;28;19960;-67
2023/08/02 03:58:27;;;;;;;;;;;17.50;99.90;;;;;;5012205;28;20436;-66
2023/08/02 04:00:55;;;;;;;;;;;17.60;99.90;;;;;;5013426;28;19972;-70
2023/08/02 04:03:23;;;;;;;;;;;17.50;99.90;;;;;;5007111;28;19998;-67
2023/08/02 04:05:50;;;;;;;;;;;17.50;99.90;;;;;;5015263;28;20427;-66
2023/08/02 04:08:18;;;;;;;;;;;17.60;99.90;;;;;;5014488;28;19963;-67
2023/08/02 04:10:46;;;;;;;;;;;17.60;99.90;;;;;;5010151;28;19975;-66
2023/08/02 04:13:15;;;;;;;0.80;0.50;;;17.50;99.90;;;;;;5008008;28;20194;-65
2023/08/02 04:15:44;;;;;;;1.00;1.00;;;17.60;99.90;;;;;;4999249;28;20224;-65
2023/08/02 04:18:12;;;;;;;1.58;0.95;;;17.60;99.90;;;;;;4996763;28;20315;-65
2023/08/02 04:20:40;;;;;;;0.60;0.40;;;17.60;99.90;;;;;;4998742;28;20220;-64
2023/08/02 04:23:08;;;;;;;0.85;0.68;;;17.60;99.90;;;;;;4999526;28;20205;-64
2023/08/02 04:25:35;;;;;;;0.60;0.50;;;17.60;99.90;;;;;;4997056;28;20213;-64
2023/08/02 04:28:04;;;;;;;0.93;0.70;;;17.50;99.90;;;;;;4999894;28;20747;-66
2023/08/02 04:30:33;;;;;;;0.70;0.63;;;17.50;99.90;;;;;;4996945;28;20209;-65
2023/08/02 04:33:01;;;;;;;0.68;0.50;;;17.60;99.90;;;;;;4996992;28;20213;-65
2023/08/02 04:35:30;;;;;;;0.80;0.50;;;17.50;99.90;;;;;;4996393;28;20201;-66
2023/08/02 04:37:58;;;;;;;0.70;0.60;;;17.50;99.90;;;;;;4999410;28;20245;-66
2023/08/02 04:40:26;;;;;;;0.60;0.40;;;17.40;99.90;;;;;;4999636;28;20205;-66
2023/08/02 04:42:54;;;;;;;;;;;17.30;99.90;;;;;;4996320;28;20299;-65
2023/08/02 04:45:22;;;;;;;1.00;0.60;;;17.50;99.90;;;;;;4996834;28;20513;-64
2023/08/02 04:47:51;;;;;;;0.60;0.50;;;17.60;99.90;;;;;;4997599;28;20229;-65
2023/08/02 04:50:19;;;;;;;0.73;0.73;;;17.70;99.90;;;;;;4997605;28;20217;-66
2023/08/02 04:52:47;;;;;;;1.23;0.82;;;17.50;99.90;;;;;;4997539;28;20228;-64
2023/08/02 04:55:15;;;;;;;0.65;0.50;;;17.40;99.90;;;;;;4996308;28;20213;-64
2023/08/02 04:57:43;;;;;;;0.60;0.50;;;17.40;99.90;;;;;;4996998;28;20239;-67
2023/08/02 05:00:12;;;;;;;0.60;0.50;;;17.30;99.90;;;;;;4998245;28;21072;-63
2023/08/02 05:02:40;;;;;;;0.60;0.47;;;17.30;99.90;;;;;;4995954;28;20871;-64
2023/08/02 05:05:10;;;;;;;0.80;0.57;;;17.30;99.90;;;;;;4995701;28;20585;-64
2023/08/02 05:07:39;;;;;;;0.70;0.70;;;17.40;99.90;;;;;;4998886;28;20220;-64
2023/08/02 05:10:09;;;;;;;0.80;0.50;;;17.30;99.90;;;;;;4998635;28;20292;-64
2023/08/02 05:12:39;;;;;;;0.75;0.75;;;17.20;99.90;;;;;;4997330;28;20707;-63
2023/08/02 05:15:08;;;;;;;1.45;0.80;;;17.20;99.90;;;;;;4996202;28;20208;-62
2023/08/02 05:17:36;;;;;;;0.80;0.57;;;17.10;99.90;;;;;;4996688;28;20799;-63
2023/08/02 05:20:05;;;;;;;0.60;0.50;;;17.20;99.90;;;;;;4995395;28;20224;-63
2023/08/02 05:22:34;;;;;;;0.68;0.63;;;17.20;99.90;;;;;;4998485;28;20334;-64
2023/08/02 05:25:02;;;;;;;0.60;0.50;;;17.10;99.90;;;;;;4994615;28;20585;-62
2023/08/02 05:27:30;;;;;;;0.60;0.40;;;17.20;99.90;;;;;;4995928;28;20229;-64
2023/08/02 05:29:58;;;;;;;1.00;0.68;;;17.20;99.90;;;;;;4998137;28;20605;-64
2023/08/02 05:32:26;;;;;;;0.68;0.60;;;17.20;99.90;;;;;;4997258;28;20208;-63
2023/08/02 05:34:54;;;;;;;0.80;0.50;;;17.20;99.90;;;;;;4995918;28;20750;-64
2023/08/02 05:37:22;;;;;;;0.85;0.82;;;17.00;99.90;;;;;;4997223;28;20609;-64
2023/08/02 05:39:52;;;;;;;1.00;0.90;;;17.00;99.90;;;;;;4997715;28;20234;-62
2023/08/02 05:42:20;;;;;;;0.88;0.60;;;17.00;99.90;;;;;;4998122;28;20799;-63
2023/08/02 05:44:47;;;;;;;0.50;0.40;;;16.80;99.90;;;;;;4995431;28;20217;-62
2023/08/02 05:47:15;;;;;;;1.08;0.65;;;16.80;99.90;;;;;;4996408;28;20251;-63
2023/08/02 05:49:43;;;;;;;0.60;0.50;;;16.80;99.90;;;;;;4997385;28;20279;-62
2023/08/02 05:52:11;;;;;;;0.60;0.47;;;16.90;99.90;;;;;;4996686;28;20730;-62
2023/08/02 05:54:39;;;;;;;0.80;0.70;;;17.00;99.90;;;;;;4999280;28;20217;-65
2023/08/02 05:57:08;;;;;;;0.73;0.70;;;16.90;99.90;;;;;;5001103;28;20480;-63
2023/08/02 05:59:38;;;;;;;0.60;0.60;;;16.80;99.90;;;;;;5000053;28;20229;-63
2023/08/02 06:02:07;;;;;;;0.63;0.50;;;16.90;99.90;;;;;;5005094;28;20197;-65
2023/08/02 06:04:37;;;;;;;0.60;0.40;;;16.90;99.90;;;;;;5008773;28;20201;-65
2023/08/02 06:07:05;;;;;;;1.75;0.50;;;16.90;99.90;;;;;;5009038;28;20244;-66
2023/08/02 06:09:33;;;;;;;4.10;0.90;;;16.80;99.90;;;;;;5014381;28;20354;-65
2023/08/02 06:12:02;;;;;;;0.60;0.60;;;16.80;99.90;;;;;;5010728;28;20216;-64
2023/08/02 06:14:31;;;;;;;0.60;0.50;;;16.70;99.90;;;;;;5009289;28;20217;-65
2023/08/02 06:16:59;;;;;;;1.23;0.95;;;16.60;99.90;;;;;;5004544;28;20233;-66
2023/08/02 06:19:26;;;;;;;0.90;0.65;;;16.50;99.90;;;;;;5012398;28;20593;-66
2023/08/02 06:21:54;;;;;;;0.70;0.57;;;16.40;99.90;;;;;;5014117;28;20213;-65
2023/08/02 06:24:23;;;;;;;0.60;0.50;;;16.30;99.90;;;;;;5013664;28;20212;-65
2023/08/02 06:26:51;;;;;;;0.77;0.60;;;16.30;99.90;;;;;;5014194;28;20233;-64
2023/08/02 06:29:19;;;;;;;0.75;0.65;;;16.20;99.90;;;;;;5014233;28;20213;-65
2023/08/02 06:31:48;;;;;;;0.68;0.68;;;16.20;99.90;;;;;;5013992;28;20220;-67
2023/08/02 06:34:16;;;;;;;1.15;0.60;;;16.20;99.90;;;;;;5014074;28;20218;-65
2023/08/02 06:36:43;;;;;;;0.60;0.50;;;16.30;99.90;;;;;;5013788;28;20283;-65
2023/08/02 06:39:11;;;;;;;0.60;0.60;;;16.20;99.90;;;;;;5013766;28;20769;-65
2023/08/02 06:41:39;;;;;;;0.50;0.40;;;16.20;99.90;;;;;;5013863;28;20344;-66
2023/08/02 06:44:07;;;;;;;0.75;0.63;;;16.20;99.90;;;;;;5014196;28;20201;-66
2023/08/02 06:46:35;;;;;;;0.70;0.70;;;16.30;99.90;;;;;;5013798;28;20232;-66
2023/08/02 06:49:05;;;;;;;2.22;1.30;;;16.30;99.90;;;;;;5013855;28;20332;-65
2023/08/02 06:51:33;;;;;;;0.60;0.50;;;16.30;99.90;;;;;;5006218;28;20209;-63
2023/08/02 06:54:01;;;;;;;1.00;0.90;;;16.20;99.90;;;;;;5013805;28;20201;-65
2023/08/02 06:56:29;;;;;;;0.80;0.80;;;16.00;99.90;;;;;;5013673;28;20220;-65
2023/08/02 06:58:56;;;;;;;1.00;0.70;;;16.00;99.90;;;;;;5013751;28;20221;-65
2023/08/02 07:01:24;;;;;;;0.60;0.50;;;16.00;99.90;;;;;;5013670;28;20267;-65
2023/08/02 07:03:52;;;;;;;0.60;0.52;;;16.00;99.90;;;;;;5013315;28;20209;-65
2023/08/02 07:06:22;;;;;;;0.60;0.60;;;15.90;99.90;;;;;;5012591;28;20320;-67
2023/08/02 07:08:50;;;;;;;0.80;0.77;;;16.00;99.90;;;;;;5013837;28;20205;-65
2023/08/02 07:11:18;;;;;;;0.70;0.50;;;16.00;99.90;;;;;;5013327;28;20209;-65
2023/08/02 07:14:03;;;;;;;1.02;0.95;;;15.90;99.90;;;;;;5013520;28;20209;-65
2023/08/02 07:16:31;;;;;;;0.80;0.60;;;15.90;99.90;;;;;;5013017;28;20225;-66
2023/08/02 07:19:02;;;;;;;1.08;0.95;;;15.90;99.90;;;;;;5013396;28;20232;-65
2023/08/02 07:21:31;;;;;;;1.30;1.20;;;16.00;99.90;;;;;;5013152;28;20224;-65
2023/08/02 07:23:59;;;;;;;1.02;0.80;;;16.10;99.90;;;;;;5013230;28;20217;-64
2023/08/02 07:26:27;;;;;;;1.13;0.75;;;16.10;99.90;;;;;;5012904;28;20261;-65
2023/08/02 07:28:55;;;;;;;1.17;1.10;;;16.10;99.90;;;;;;5013077;28;20213;-65
2023/08/02 07:31:23;;;;;;;1.50;1.20;;;16.20;99.90;;;;;;5012998;28;20263;-65
2023/08/02 07:33:51;;;;;;;0.80;0.70;;;16.20;99.90;;;;;;5013206;28;20296;-66
2023/08/02 07:36:20;;;;;;;0.60;0.50;;;16.20;99.90;;;;;;5012307;28;20607;-65
2023/08/02 07:38:49;;;;;;;0.60;0.50;;;16.20;99.90;;;;;;5013651;28;20217;-65
2023/08/02 07:41:17;;;;;;;0.63;0.63;;;16.20;99.90;;;;;;5012342;28;20220;-65
2023/08/02 07:43:49;;;;;;;1.00;0.52;;;16.10;99.90;;;;;;5013027;28;20216;-65
2023/08/02 07:46:17;;;;;;;1.33;0.63;;;16.20;99.90;;;;;;5012584;28;20719;-66
2023/08/02 07:48:45;;;;;;;0.75;0.65;;;16.20;99.90;;;;;;5012746;28;20213;-65
2023/08/02 07:51:14;;;;;;;0.60;0.60;;;16.20;99.90;;;;;;5012391;28;20287;-66
2023/08/02 07:53:42;;;;;;;0.63;0.63;;;16.20;99.90;;;;;;5012783;28;20213;-65
2023/08/02 07:56:11;;;;;;;0.90;0.90;;;16.20;99.90;;;;;;5012723;28;20228;-65
2023/08/02 07:58:39;;;;;;;0.60;0.50;;;16.20;99.90;;;;;;5004664;28;20213;-65
2023/08/02 08:01:09;;;;;;;0.55;0.40;;;16.20;99.90;;;;;;5012229;28;20228;-64
2023/08/02 08:03:37;;;;;;;0.90;0.65;;;16.30;99.90;;;;;;5012187;28;20224;-66
2023/08/02 08:06:13;;;;;;;0.77;0.70;;;16.30;99.90;;;;;;5012469;28;20528;-64
2023/08/02 08:08:41;;;;;;;0.55;0.47;;;16.30;99.90;;;;;;5013484;28;20207;-64
2023/08/02 08:11:11;;;;;;;0.60;0.52;;;16.30;99.90;;;;;;5012501;28;20577;-65
2023/08/02 08:13:38;;;;;;;0.70;0.65;;;16.20;99.90;;;;;;5012258;28;20667;-65
2023/08/02 08:16:07;;;;;;;1.20;1.00;;;16.20;99.90;;;;;;5011834;28;20716;-65
2023/08/02 08:18:36;;;;;;;1.27;0.60;;;16.30;99.90;;;;;;5012154;28;20218;-65
2023/08/02 08:21:06;;;;;;;0.82;0.82;;;16.30;99.90;;;;;;5012161;28;20580;-65
2023/08/02 08:23:34;;;;;;;0.85;0.85;;;16.40;99.90;;;;;;5012325;28;20209;-65
2023/08/02 08:26:02;;;;;;;0.60;0.50;;;16.40;99.90;;;;;;5012175;28;20228;-65
2023/08/02 08:28:31;;;;;;;0.70;0.63;;;16.40;99.90;;;;;;5011942;28;20212;-65
2023/08/02 08:31:00;;;;;;;0.50;0.40;;;16.40;99.90;;;;;;5011921;28;20703;-65
2023/08/02 08:33:29;;;;;;;0.60;0.60;;;16.30;99.90;;;;;;5011917;28;20213;-64
2023/08/02 08:36:19;;;;;;;0.60;0.60;;;16.40;99.90;;;;;;5013829;23;20224;31
2023/08/02 08:38:47;;;;;;;0.60;0.60;;;16.30;99.90;;;;;;4989951;28;20214;-76
2023/08/02 08:41:18;;;;;;;1.25;1.15;;;16.40;99.90;;;;;;4991890;28;20770;-76
2023/08/02 08:43:47;;;;;;;0.70;0.60;;;16.40;99.90;;;;;;4992084;28;20206;-75
2023/08/02 08:46:16;;;;;;;0.60;0.50;;;16.40;99.90;;;;;;4992220;28;20214;-75
2023/08/02 08:48:44;;;;;;;0.95;0.60;;;16.40;99.90;;;;;;4984325;28;20669;-76
2023/08/02 08:51:13;;;;;;;0.70;0.55;;;16.40;99.90;;;;;;4992211;28;20197;-77
2023/08/02 08:53:45;;;;;;;0.63;0.63;;;16.50;99.90;;;;;;4991944;28;20211;-75
2023/08/02 08:56:14;;;;;;;0.85;0.85;;;16.50;99.90;;;;;;4992094;28;20262;-75
2023/08/02 08:58:42;;;;;;;0.77;0.68;;;16.60;99.90;;;;;;4991855;28;20214;-75
2023/08/02 09:01:12;;;;;;;1.00;0.90;;;16.60;99.90;;;;;;4992166;28;20233;-76
2023/08/02 09:03:40;;;;;;;0.60;0.50;;;16.60;99.90;;;;;;4992183;28;20190;-75
2023/08/02 09:06:08;;;;;;;0.70;0.40;;;16.60;99.90;;;;;;4991593;28;20210;-75
2023/08/02 09:08:43;;;;;;;0.70;0.60;;;16.60;99.90;;;;;;4991565;28;20237;-75
2023/08/02 09:11:11;;;;;;;0.50;0.40;;;16.50;99.90;;;;;;4991977;28;20223;-74
2023/08/02 09:13:39;;;;;;;0.50;0.40;;;16.50;99.90;;;;;;4991675;28;20206;-75
2023/08/02 09:16:09;;;;;;;0.60;0.57;;;16.60;99.90;;;;;;4991809;28;20747;-74
2023/08/02 09:18:40;;;;;;;0.63;0.60;;;16.60;99.90;;;;;;4991408;28;20220;-73
2023/08/02 09:21:10;;;;;;;0.80;0.75;;;16.60;99.90;;;;;;4991680;28;20595;-74
2023/08/02 09:23:38;;;;;;;0.60;0.60;;;16.50;99.90;;;;;;4991539;28;20593;-74
2023/08/02 09:26:18;;;;;;;0.73;0.65;;;16.50;99.90;;;;;;4991396;28;20213;-75
2023/08/02 09:29:00;;;;;;;0.90;0.80;;;16.50;99.90;;;;;;4990912;28;20209;-75
2023/08/02 09:31:29;;;;;;;1.33;0.90;;;16.60;99.90;;;;;;4991691;28;20205;-75
2023/08/02 09:33:59;;;;;;;0.85;0.85;;;16.60;99.90;;;;;;4991625;28;20212;-75
2023/08/02 09:36:28;;;;;;;0.60;0.60;;;16.70;99.90;;;;;;4990940;28;20256;-75
2023/08/02 09:39:03;;;;;;;0.57;0.55;;;16.70;99.90;;;;;;4990422;28;20216;-75
2023/08/02 09:41:32;;;;;;;0.60;0.50;;;16.60;99.90;;;;;;4991125;28;20225;-73
2023/08/02 09:44:21;;;;;;;0.63;0.60;;;16.70;99.90;;;;;;4991150;28;20435;-76
2023/08/02 09:46:49;;;;;;;0.80;0.70;;;16.70;99.90;;;;;;4991128;28;20296;-76
2023/08/02 09:49:20;;;;;;;0.77;0.75;;;16.70;99.90;;;;;;4991479;28;20213;-75
2023/08/02 09:51:48;;;;;;;0.70;0.57;;;16.80;99.90;;;;;;4983555;28;20580;-76
2023/08/02 09:54:16;;;;;;;0.60;0.60;;;16.80;99.90;;;;;;4991255;28;20208;-76
2023/08/02 09:56:44;;;;;;;0.50;0.40;;;16.80;99.90;;;;;;4990820;28;20304;-75
2023/08/02 09:59:13;;;;;;;0.73;0.73;;;16.90;99.90;;;;;;4991481;28;20214;-76
2023/08/02 10:01:41;;;;;;;0.70;0.50;;;16.90;99.90;;;;;;4990770;28;20292;-77
2023/08/02 10:04:11;;;;;;;0.80;0.80;;;16.90;99.90;;;;;;4991298;28;20221;-76
2023/08/02 10:06:44;;;;;;;0.80;0.75;;;16.90;99.90;;;;;;4990577;28;20720;-77
2023/08/02 10:09:18;;;;;;;0.63;0.52;;;16.90;99.90;;;;;;4991406;28;20665;-77
2023/08/02 10:11:50;;;;;;;0.60;0.50;;;16.90;99.90;;;;;;4991226;28;20206;-76
2023/08/02 10:14:19;;;;;;;0.50;0.40;;;17.00;99.90;;;;;;4991330;28;20206;-76
2023/08/02 10:16:47;;;;;;;0.60;0.50;;;17.00;99.90;;;;;;4990719;28;20595;-76
2023/08/02 10:19:17;;;;;;;1.35;0.80;;;17.00;99.90;;;;;;4991265;28;20657;-76
2023/08/02 10:21:53;;;;;;;0.60;0.55;;;17.00;99.90;;;;;;4991154;28;20332;-77
2023/08/02 10:24:22;;;;;;;0.60;0.60;;;17.10;99.90;;;;;;4991360;28;20202;-77
2023/08/02 10:26:50;;;;;;;1.15;1.10;;;17.10;99.90;;;;;;4990665;28;20230;-75
2023/08/02 10:29:20;;;;;;;1.25;0.80;;;17.10;99.90;;;;;;4991642;28;20644;-76
2023/08/02 10:31:48;;;;;;;1.40;0.93;;;17.10;99.90;;;;;;4990794;28;20225;-73
2023/08/02 10:34:45;;;;;;;0.60;0.40;;;17.20;99.90;;;;;;4991044;28;20216;-77
2023/08/02 10:37:14;;;;;;;0.52;0.45;;;17.30;99.90;;;;;;4990655;28;20237;-77
2023/08/02 10:39:53;;;;;;;0.55;0.50;;;17.30;99.90;;;;;;4992765;28;20206;-77
2023/08/02 10:42:22;;;;;;;0.50;0.40;;;17.40;99.90;;;;;;4994358;28;20221;-77
2023/08/02 10:45:14;;;;;;;0.85;0.75;;;17.40;99.90;;;;;;4994584;28;20619;-75
2023/08/02 10:47:42;;;;;;;0.55;0.45;;;17.50;99.90;;;;;;4994861;28;20233;-76
2023/08/02 10:50:49;;;;;;;0.50;0.40;;;17.60;99.90;;;;;;4994600;28;20212;-77
2023/08/02 10:53:18;;;;;;;0.60;0.50;;;17.60;99.90;;;;;;4994345;28;20205;-76
2023/08/02 10:56:08;;;;;;;0.50;0.40;;;17.60;99.90;;;;;;4994221;28;20213;-77
2023/08/02 10:58:50;;;;;;;0.50;0.43;;;17.60;99.90;;;;;;4994225;28;20206;-75
2023/08/02 11:01:19;;;;;;;1.20;0.82;;;17.60;99.90;;;;;;4976748;28;20608;-76
2023/08/02 11:03:47;;;;;;;0.60;0.50;;;17.70;99.90;;;;;;4993869;28;20265;-76
2023/08/02 11:06:29;;;;;;;0.50;0.40;;;17.70;99.90;;;;;;4994430;28;20272;-77
2023/08/02 11:09:02;;;;;;;1.02;0.88;;;17.80;99.90;;;;;;4994275;28;20216;-77
2023/08/02 11:11:35;;;;;;;0.50;0.40;;;17.90;99.90;;;;;;4993829;28;20587;-76
2023/08/02 11:14:04;;;;;;;0.50;0.40;;;17.90;99.90;;;;;;4993952;28;20737;-75
2023/08/02 11:16:38;;;;;;;0.50;0.40;;;17.90;99.90;;;;;;4993911;28;20235;-74
2023/08/02 11:19:09;;;;;;;0.80;0.77;;;17.90;99.90;;;;;;4994121;28;20288;-75
2023/08/02 11:21:38;;;;;;;0.50;0.40;;;17.90;99.90;;;;;;4993726;28;20643;-76
2023/08/02 11:24:07;;;;;;;0.50;0.40;;;17.90;99.90;;;;;;4993724;28;20206;-76
2023/08/02 11:26:35;;;;;;;0.50;0.40;;;17.90;99.90;;;;;;4993517;28;20232;-77
2023/08/02 11:29:09;;;;;;;0.50;0.50;;;17.90;99.90;;;;;;4994202;28;20205;-76
2023/08/02 11:31:37;;;;;;;0.68;0.57;;;18.00;99.90;;;;;;4994079;28;20726;-77
2023/08/02 11:34:05;;;;;;;0.82;0.82;;;17.90;99.90;;;;;;4994168;28;20252;-77
2023/08/02 11:36:33;;;;;;;0.70;0.60;;;18.00;99.90;;;;;;4993014;28;20260;-76
2023/08/02 11:39:03;;;;;;;0.52;0.50;;;18.00;99.90;;;;;;4993726;28;20684;-77
2023/08/02 11:41:32;;;;;;;0.60;0.60;;;18.00;99.90;;;;;;4993726;28;20222;-73
2023/08/02 11:44:00;;;;;;;0.55;0.47;;;18.00;99.90;;;;;;4993674;28;20209;-76
2023/08/02 11:46:28;;;;;;;0.50;0.40;;;18.10;99.90;;;;;;4993626;28;20607;-76
2023/08/02 11:49:06;;;;;;;0.50;0.40;;;18.10;99.90;;;;;;4993311;28;20661;-78
2023/08/02 11:51:39;;;;;;;0.50;0.40;;;18.10;99.90;;;;;;4993250;28;20213;-76
2023/08/02 11:54:08;;;;;;;0.70;0.60;;;18.20;99.90;;;;;;4993495;28;20205;-75
2023/08/02 11:56:37;;;;;;;1.17;0.50;;;18.20;99.90;;;;;;4993040;28;20225;-76
2023/08/02 11:59:08;;;;;;;0.50;0.40;;;18.20;99.90;;;;;;4993349;28;20225;-76
2023/08/02 12:01:38;;;;;;;0.50;0.40;;;18.20;99.90;;;;;;4993181;28;20228;-77
2023/08/02 12:04:07;;;;;;;0.70;0.50;;;18.20;99.90;;;;;;4993220;28;20220;-76
2023/08/02 12:06:46;;;;;;;0.60;0.50;;;18.20;99.90;;;;;;4992719;28;20270;-74
2023/08/02 12:09:15;;;;;;;0.50;0.50;;;18.30;99.90;;;;;;4993323;28;20201;-77
2023/08/02 12:11:44;;;;;;;0.50;0.40;;;18.30;99.90;;;;;;4992819;28;20619;-77
2023/08/02 12:14:12;;;;;;;1.80;0.73;;;18.30;99.90;;;;;;4993113;28;20212;-76
2023/08/02 12:16:41;;;;;;;0.50;0.40;;;18.30;99.90;;;;;;4992742;28;20230;-76
2023/08/02 12:19:11;;;;;;;0.40;0.30;;;18.30;99.90;;;;;;4993013;28;20206;-78
2023/08/02 12:21:39;;;;;;;0.50;0.40;;;18.30;99.90;;;;;;4992636;28;20222;-76
2023/08/02 12:24:14;;;;;;;0.50;0.50;;;18.30;99.90;;;;;;4992572;28;20224;-77
2023/08/02 12:26:44;;;;;;;0.50;0.40;;;18.30;99.90;;;;;;4992129;28;20221;-77
2023/08/02 12:29:22;;;;;;;0.50;0.40;;;18.30;99.90;;;;;;4993049;28;20289;-78
2023/08/02 12:31:53;;;;;;;0.52;0.52;;;18.40;99.90;;;;;;4992610;28;20202;-78
2023/08/02 12:34:21;;;;;;;0.50;0.40;;;18.40;99.90;;;;;;4992310;28;20292;-77
2023/08/02 12:36:49;;;;;;;0.50;0.40;;;18.40;99.90;;;;;;4991884;28;20242;-77
2023/08/02 12:39:17;;;;;;;0.73;0.40;;;18.50;99.90;;;;;;4992299;28;20628;-77
2023/08/02 12:41:47;;;;;;;0.50;0.50;;;18.40;99.90;;;;;;4992227;28;20571;-76
2023/08/02 12:44:15;;;;;;;0.40;0.40;;;18.60;99.90;;;;;;4992326;28;20212;-78
2023/08/02 12:46:43;;;;;;;0.50;0.40;;;18.60;99.90;;;;;;4991990;28;20253;-77
2023/08/02 12:49:12;;;;;;;0.40;0.30;;;18.70;99.90;;;;;;4992525;28;20604;-77
2023/08/02 12:51:39;;;;;;;0.98;0.50;;;18.70;99.90;;;;;;4992195;28;20213;-76
2023/08/02 12:54:07;;;;;;;0.40;0.40;;;18.80;99.90;;;;;;4992143;28;20676;-78
2023/08/02 12:56:35;;;;;;;0.50;0.40;;;18.90;99.90;;;;;;4992018;28;20266;-78
2023/08/02 12:59:04;;;;;;;0.47;0.40;;;19.00;99.90;;;;;;4992195;28;20206;-79
2023/08/02 13:01:33;;;;;;;0.60;0.60;;;19.10;99.90;;;;;;4992160;28;20213;-77
2023/08/02 13:04:03;;;;;;;0.50;0.50;;;19.20;99.90;;;;;;4990762;28;20653;-75
2023/08/02 13:06:31;;;;;;;0.60;0.50;;;19.20;99.90;;;;;;4992016;28;20253;-77
2023/08/02 13:09:03;;;;;;;0.50;0.40;;;19.20;99.90;;;;;;4994899;28;20265;-78
2023/08/02 13:11:31;;;;;;;0.80;0.40;;;19.20;99.90;;;;;;4992111;28;20248;-77
2023/08/02 13:13:59;;;;;;;0.50;0.50;;;19.30;99.90;;;;;;4991721;28;20205;-77
2023/08/02 13:16:28;;;;;;;0.60;0.52;;;19.30;99.90;;;;;;4992149;28;20226;-77
2023/08/02 13:18:56;;;;;;;0.50;0.38;;;19.30;99.90;;;;;;4991516;28;20210;-77
2023/08/02 13:21:24;;;;;;;0.68;0.40;;;19.40;99.90;;;;;;4992352;28;20683;-77
2023/08/02 13:23:52;;;;;;;1.05;0.60;;;19.40;99.90;;;;;;4991385;28;20276;-77